createdAt,value
2023-01-30T00:01:16.147Z,84.03
2023-01-30T00:03:44.355Z,83.70
2023-01-30T00:06:13.149Z,83.53
2023-01-30T00:08:41.337Z,83.40
2023-01-30T00:11:11.343Z,83.80
2023-01-30T00:13:39.733Z,83.20
2023-01-30T00:16:10.790Z,83.11
2023-01-30T00:18:41.017Z,83.18
2023-01-30T00:21:11.228Z,83.06
2023-01-30T00:23:40.332Z,83.30
2023-01-30T00:26:09.786Z,83.36
2023-01-30T00:28:39.791Z,83.33
2023-01-30T00:31:10.220Z,83.18
2023-01-30T00:33:39.887Z,83.05
2023-01-30T00:36:08.908Z,83.11
2023-01-30T00:38:38.459Z,82.97
2023-01-30T00:41:08.707Z,83.26
2023-01-30T00:43:54.584Z,83.29
2023-01-30T00:46:48.618Z,83.61
2023-01-30T00:49:17.320Z,83.65
2023-01-30T00:51:47.181Z,83.31
2023-01-30T00:54:15.615Z,83.34
2023-01-30T00:56:44.898Z,83.19
2023-01-30T00:59:13.107Z,82.94
2023-01-30T01:01:43.067Z,83.21
2023-01-30T01:04:11.908Z,83.02
2023-01-30T01:06:40.987Z,83.29
2023-01-30T01:09:09.234Z,82.97
2023-01-30T01:11:37.831Z,83.04
2023-01-30T01:14:07.714Z,82.96
2023-01-30T01:16:37.250Z,83.04
2023-01-30T01:19:07.000Z,82.93
2023-01-30T01:21:35.297Z,82.96
2023-01-30T01:24:03.542Z,82.78
2023-01-30T01:26:31.785Z,82.88
2023-01-30T01:29:00.732Z,82.92
2023-01-30T01:31:29.076Z,82.95
2023-01-30T01:33:57.666Z,82.97
2023-01-30T01:36:52.037Z,82.89
2023-01-30T01:39:17.732Z,83.08
2023-01-30T01:41:45.006Z,83.07
2023-01-30T01:44:15.364Z,83.14
2023-01-30T01:46:47.217Z,83.22
2023-01-30T01:49:18.689Z,83.27
2023-01-30T01:51:56.123Z,83.21
2023-01-30T01:54:30.894Z,83.23
2023-01-30T01:57:03.162Z,82.98
2023-01-30T01:59:36.200Z,83.11
2023-01-30T02:02:10.412Z,83.00
2023-01-30T02:04:58.332Z,83.11
2023-01-30T02:07:30.868Z,82.94
2023-01-30T02:09:59.001Z,82.76
2023-01-30T02:12:27.487Z,83.17
2023-01-30T02:14:58.315Z,83.11
2023-01-30T02:17:26.612Z,83.06
2023-01-30T02:20:06.152Z,83.07
2023-01-30T02:23:11.563Z,82.79
2023-01-30T02:26:10.910Z,83.07
2023-01-30T02:28:53.698Z,83.12
2023-01-30T02:31:28.865Z,83.55
2023-01-30T02:34:10.990Z,83.36
2023-01-30T02:36:53.290Z,83.18
2023-01-30T02:39:34.082Z,82.99
2023-01-30T02:42:10.075Z,83.29
2023-01-30T02:44:50.984Z,83.53
2023-01-30T02:47:26.711Z,83.39
2023-01-30T02:50:02.161Z,83.58
2023-01-30T02:52:31.968Z,83.40
2023-01-30T02:55:00.211Z,83.54
2023-01-30T02:57:28.483Z,83.61
2023-01-30T03:00:06.268Z,83.75
2023-01-30T03:03:07.491Z,83.51
2023-01-30T03:06:05.971Z,83.44
2023-01-30T03:08:45.699Z,83.44
2023-01-30T03:11:14.538Z,83.58
2023-01-30T03:13:50.527Z,83.90
2023-01-30T03:16:22.396Z,83.75
2023-01-30T03:18:52.097Z,83.55
2023-01-30T03:21:20.922Z,83.80
2023-01-30T03:23:49.274Z,83.50
2023-01-30T03:26:21.561Z,83.39
2023-01-30T03:28:52.797Z,83.62
2023-01-30T03:31:22.022Z,83.61
2023-01-30T03:33:51.709Z,83.73
2023-01-30T03:36:20.095Z,83.87
2023-01-30T03:38:48.548Z,83.70
2023-01-30T03:41:17.693Z,83.83
2023-01-30T03:43:45.899Z,83.85
2023-01-30T03:46:14.213Z,83.78
2023-01-30T03:48:42.899Z,83.50
2023-01-30T03:51:15.184Z,84.00
2023-01-30T03:53:43.609Z,83.97
2023-01-30T03:56:13.588Z,83.93
2023-01-30T03:58:41.909Z,83.85
2023-01-30T04:01:19.098Z,84.17
2023-01-30T04:03:48.041Z,83.80
2023-01-30T04:06:18.669Z,84.12
2023-01-30T04:08:46.999Z,83.81
2023-01-30T04:11:27.696Z,83.92
2023-01-30T04:13:56.087Z,84.01
2023-01-30T04:16:27.633Z,84.07
2023-01-30T04:19:14.271Z,84.18
2023-01-30T04:21:44.487Z,83.93
2023-01-30T04:24:13.564Z,84.19
2023-01-30T04:26:42.046Z,84.07
2023-01-30T04:29:11.529Z,84.23
2023-01-30T04:31:41.364Z,84.06
2023-01-30T04:34:19.856Z,84.24
2023-01-30T04:36:49.829Z,83.91
2023-01-30T04:39:20.492Z,84.01
2023-01-30T04:41:49.490Z,84.16
2023-01-30T04:44:17.903Z,83.93
2023-01-30T04:47:07.421Z,84.13
2023-01-30T04:49:36.019Z,84.14
2023-01-30T04:52:06.664Z,84.23
2023-01-30T04:54:35.078Z,84.16
2023-01-30T04:57:03.389Z,84.31
2023-01-30T04:59:31.813Z,84.39
2023-01-30T05:02:04.601Z,84.53
2023-01-30T05:04:32.942Z,85.03
2023-01-30T05:07:01.181Z,84.92
2023-01-30T05:09:30.888Z,85.13
2023-01-30T05:11:59.526Z,85.41
2023-01-30T05:14:27.811Z,85.00
2023-01-30T05:16:56.165Z,84.92
2023-01-30T05:19:24.601Z,85.18
2023-01-30T05:21:53.187Z,84.89
2023-01-30T05:24:21.706Z,84.83
2023-01-30T05:26:51.703Z,84.91
2023-01-30T05:29:20.016Z,85.13
2023-01-30T05:31:48.386Z,84.85
2023-01-30T05:34:16.913Z,84.93
2023-01-30T05:36:45.505Z,84.69
2023-01-30T05:39:14.384Z,84.81
2023-01-30T05:41:42.932Z,84.62
2023-01-30T05:44:12.753Z,84.46
2023-01-30T05:46:41.241Z,84.52
2023-01-30T05:49:09.540Z,84.59
2023-01-30T05:51:38.767Z,84.90
2023-01-30T05:54:07.249Z,84.77
2023-01-30T05:56:35.737Z,84.71
2023-01-30T05:59:04.224Z,84.98
2023-01-30T06:01:34.032Z,84.70
2023-01-30T06:04:03.143Z,84.89
2023-01-30T06:06:31.450Z,85.16
2023-01-30T06:08:59.741Z,85.01
2023-01-30T06:11:28.147Z,84.92
2023-01-30T06:13:56.559Z,84.83
2023-01-30T06:16:25.003Z,84.98
2023-01-30T06:18:54.731Z,84.82
2023-01-30T06:21:23.161Z,84.90
2023-01-30T06:23:51.432Z,84.90
2023-01-30T06:26:19.723Z,84.96
2023-01-30T06:28:48.491Z,84.96
2023-01-30T06:31:18.567Z,85.12
2023-01-30T06:33:47.125Z,85.26
2023-01-30T06:36:16.998Z,85.57
2023-01-30T06:38:45.191Z,85.49
2023-01-30T06:41:13.407Z,85.28
2023-01-30T06:43:43.151Z,85.51
2023-01-30T06:46:11.481Z,85.37
2023-01-30T06:48:39.718Z,85.58
2023-01-30T06:51:07.985Z,85.65
2023-01-30T06:53:37.657Z,85.71
2023-01-30T06:56:06.330Z,85.74
2023-01-30T06:58:34.559Z,85.83
2023-01-30T07:01:03.282Z,85.94
2023-01-30T07:03:31.679Z,86.13
2023-01-30T07:05:59.986Z,86.47
2023-01-30T07:08:28.303Z,86.12
2023-01-30T07:10:57.976Z,86.29
2023-01-30T07:13:26.336Z,86.20
2023-01-30T07:15:54.549Z,86.14
2023-01-30T07:18:22.773Z,86.34
2023-01-30T07:20:51.589Z,86.31
2023-01-30T07:23:19.937Z,86.37
2023-01-30T07:25:48.262Z,86.32
2023-01-30T07:28:17.839Z,86.55
2023-01-30T07:30:46.111Z,86.67
2023-01-30T07:33:14.637Z,86.47
2023-01-30T07:35:42.858Z,86.94
2023-01-30T07:38:11.114Z,87.26
2023-01-30T07:40:39.401Z,86.84
2023-01-30T07:43:09.400Z,87.20
2023-01-30T07:45:41.979Z,87.09
2023-01-30T07:48:11.042Z,87.16
2023-01-30T07:50:39.465Z,87.40
2023-01-30T07:53:10.256Z,87.07
2023-01-30T07:55:38.898Z,87.00
2023-01-30T07:58:07.210Z,87.07
2023-01-30T08:00:35.541Z,87.12
2023-01-30T08:03:05.265Z,87.32
2023-01-30T08:05:33.772Z,87.08
2023-01-30T08:08:02.022Z,87.00
2023-01-30T08:10:30.230Z,87.04
2023-01-30T08:12:58.454Z,86.88
2023-01-30T08:15:26.733Z,87.07
2023-01-30T08:17:56.738Z,86.75
2023-01-30T08:20:28.143Z,86.94
2023-01-30T08:22:56.538Z,87.03
2023-01-30T08:25:24.886Z,86.71
2023-01-30T08:27:53.576Z,87.22
2023-01-30T08:30:22.573Z,86.86
2023-01-30T08:32:51.095Z,87.12
2023-01-30T08:35:19.629Z,86.80
2023-01-30T08:37:49.485Z,86.86
2023-01-30T08:40:18.349Z,87.17
2023-01-30T08:42:47.378Z,87.13
2023-01-30T08:45:15.803Z,87.39
2023-01-30T08:47:44.176Z,87.27
2023-01-30T08:50:12.945Z,87.33
2023-01-30T08:52:41.174Z,87.26
2023-01-30T08:55:11.915Z,87.47
2023-01-30T08:57:40.247Z,87.31
2023-01-30T09:00:10.220Z,87.58
2023-01-30T09:02:38.893Z,87.48
2023-01-30T09:05:08.905Z,87.84
2023-01-30T09:07:37.229Z,87.73
2023-01-30T09:10:06.233Z,87.99
2023-01-30T09:12:36.257Z,88.13
2023-01-30T09:15:04.942Z,87.61
2023-01-30T09:17:33.203Z,88.04
2023-01-30T09:20:02.024Z,87.57
2023-01-30T09:22:30.317Z,87.70
2023-01-30T09:24:59.183Z,87.57
2023-01-30T09:27:27.559Z,87.36
2023-01-30T09:29:57.350Z,87.21
2023-01-30T09:32:25.683Z,87.46
2023-01-30T09:34:53.976Z,87.24
2023-01-30T09:37:22.316Z,87.27
2023-01-30T09:39:50.531Z,87.18
2023-01-30T09:42:51.962Z,86.93
2023-01-30T09:45:44.756Z,87.07
2023-01-30T09:48:18.632Z,86.84
2023-01-30T09:51:15.660Z,87.00
2023-01-30T09:54:02.405Z,87.02
2023-01-30T09:56:31.048Z,87.00
2023-01-30T09:59:01.229Z,86.53
2023-01-30T10:01:38.315Z,86.80
2023-01-30T10:04:15.788Z,86.86
2023-01-30T10:06:53.405Z,86.76
2023-01-30T10:09:34.674Z,86.90
2023-01-30T10:12:16.446Z,87.06
2023-01-30T10:14:59.278Z,86.98
2023-01-30T10:17:41.703Z,86.99
2023-01-30T10:20:40.139Z,86.68
2023-01-30T10:23:31.090Z,86.68
2023-01-30T10:26:06.214Z,86.58
2023-01-30T10:28:39.409Z,86.62
2023-01-30T10:31:14.626Z,86.30
2023-01-30T10:33:50.845Z,86.56
2023-01-30T10:36:26.525Z,86.73
2023-01-30T10:39:00.458Z,86.82
2023-01-30T10:41:34.135Z,86.50
2023-01-30T10:44:07.038Z,86.47
2023-01-30T10:46:56.956Z,85.90
2023-01-30T10:49:37.670Z,86.06
2023-01-30T10:52:21.194Z,85.80
2023-01-30T10:55:01.302Z,86.16
2023-01-30T10:57:43.813Z,86.54
2023-01-30T11:00:23.881Z,86.36
2023-01-30T11:03:07.228Z,86.21
2023-01-30T11:05:43.406Z,85.41
2023-01-30T11:08:21.396Z,85.74
2023-01-30T11:10:49.843Z,85.36
2023-01-30T11:13:20.309Z,85.13
2023-01-30T11:15:52.266Z,85.13
2023-01-30T11:19:14.107Z,85.50
2023-01-30T11:21:24.987Z,85.07
2023-01-30T11:23:56.006Z,85.45
2023-01-30T11:26:32.041Z,85.53
2023-01-30T11:29:25.300Z,85.64
2023-01-30T11:31:54.714Z,85.90
2023-01-30T11:34:24.874Z,86.09
2023-01-30T11:36:54.671Z,85.94
2023-01-30T11:39:29.617Z,85.71
2023-01-30T11:42:01.849Z,85.45
2023-01-30T11:44:33.257Z,85.46
2023-01-30T11:47:03.763Z,85.64
2023-01-30T11:49:46.975Z,85.40
2023-01-30T11:52:32.859Z,85.32
2023-01-30T11:55:05.592Z,85.32
2023-01-30T11:57:42.670Z,84.99
2023-01-30T12:00:20.814Z,84.80
2023-01-30T12:02:50.631Z,84.77
2023-01-30T12:05:25.278Z,84.59
2023-01-30T12:07:54.953Z,84.77
2023-01-30T12:10:32.662Z,84.68
2023-01-30T12:13:04.868Z,85.00
2023-01-30T12:15:35.132Z,84.44
2023-01-30T12:18:11.865Z,84.18
2023-01-30T12:20:50.810Z,83.98
2023-01-30T12:23:26.882Z,83.95
2023-01-30T12:26:03.726Z,82.82
2023-01-30T12:28:38.203Z,82.51
2023-01-30T12:31:12.144Z,82.98
2023-01-30T12:33:40.617Z,83.28
2023-01-30T12:36:17.402Z,83.64
2023-01-30T12:39:13.254Z,84.17
2023-01-30T12:41:58.059Z,84.33
2023-01-30T12:44:44.786Z,84.40
2023-01-30T12:47:28.188Z,84.55
2023-01-30T12:50:21.205Z,84.68
2023-01-30T12:53:03.885Z,84.92
2023-01-30T12:55:37.819Z,84.98
2023-01-30T12:58:15.784Z,85.19
2023-01-30T13:01:00.078Z,85.04
2023-01-30T13:03:37.684Z,85.00
2023-01-30T13:06:22.891Z,85.10
2023-01-30T13:09:04.836Z,85.36
2023-01-30T13:11:49.740Z,85.58
2023-01-30T13:14:26.929Z,85.55
2023-01-30T13:17:21.572Z,85.48
2023-01-30T13:20:00.690Z,85.21
2023-01-30T13:22:36.489Z,85.21
2023-01-30T13:25:17.082Z,84.76
2023-01-30T13:27:54.523Z,84.12
2023-01-30T13:30:25.688Z,83.96
2023-01-30T13:32:58.468Z,83.68
2023-01-30T13:35:31.123Z,83.46
2023-01-30T13:38:00.423Z,83.17
2023-01-30T13:40:33.115Z,83.26
2023-01-30T13:43:10.179Z,82.34
2023-01-30T13:45:43.542Z,82.78
2023-01-30T13:48:23.519Z,82.81
2023-01-30T13:51:13.855Z,82.13
2023-01-30T13:53:49.928Z,81.88
2023-01-30T13:56:40.668Z,82.33
2023-01-30T13:59:23.852Z,82.33
2023-01-30T14:02:18.327Z,82.21
2023-01-30T14:04:49.231Z,81.91
2023-01-30T14:07:24.200Z,81.71
2023-01-30T14:10:04.178Z,81.30
2023-01-30T14:12:36.553Z,81.25
2023-01-30T14:15:21.188Z,81.49
2023-01-30T14:18:07.603Z,81.36
2023-01-30T14:20:37.692Z,81.26
2023-01-30T14:23:07.997Z,81.10
2023-01-30T14:25:48.200Z,80.16
2023-01-30T14:28:52.340Z,79.70
2023-01-30T14:31:55.393Z,80.40
2023-01-30T14:34:47.570Z,80.25
2023-01-30T14:37:46.642Z,79.60
2023-01-30T14:40:51.525Z,79.03
2023-01-30T14:43:53.247Z,78.76
2023-01-30T14:46:58.588Z,79.08
2023-01-30T14:49:33.375Z,79.47
2023-01-30T14:52:03.983Z,79.22
2023-01-30T14:54:49.588Z,79.06
2023-01-30T14:57:23.075Z,79.01
2023-01-30T15:00:14.377Z,79.14
2023-01-30T15:02:52.526Z,78.58
2023-01-30T15:05:27.734Z,78.77
2023-01-30T15:08:03.772Z,78.51
2023-01-30T15:10:50.697Z,78.15
2023-01-30T15:13:34.936Z,78.28
2023-01-30T15:16:16.033Z,78.00
2023-01-30T15:19:04.837Z,78.16
2023-01-30T15:21:56.179Z,78.11
2023-01-30T15:24:54.594Z,77.34
2023-01-30T15:27:31.326Z,76.90
2023-01-30T15:30:18.099Z,76.79
2023-01-30T15:32:46.953Z,76.50
2023-01-30T15:35:29.709Z,75.63
2023-01-30T15:37:59.098Z,76.42
2023-01-30T15:40:29.930Z,76.13
2023-01-30T15:43:20.586Z,76.24
2023-01-30T15:46:04.726Z,76.01
2023-01-30T15:48:46.171Z,76.29
2023-01-30T15:51:30.286Z,76.21
2023-01-30T15:54:10.135Z,76.04
2023-01-30T15:56:41.740Z,76.19
2023-01-30T15:59:27.639Z,76.36
2023-01-30T16:02:05.283Z,76.43
2023-01-30T16:04:33.801Z,76.52
2023-01-30T16:07:15.683Z,76.11
2023-01-30T16:09:52.182Z,75.95
2023-01-30T16:12:28.148Z,76.17
2023-01-30T16:15:05.693Z,75.84
2023-01-30T16:17:41.228Z,76.58
2023-01-30T16:20:15.601Z,76.73
2023-01-30T16:22:48.216Z,76.67
2023-01-30T16:25:21.550Z,76.75
2023-01-30T16:27:52.030Z,76.54
2023-01-30T16:30:27.269Z,76.84
2023-01-30T16:32:57.262Z,77.03
2023-01-30T16:35:34.364Z,77.17
2023-01-30T16:38:06.853Z,77.64
2023-01-30T16:40:44.710Z,78.12
2023-01-30T16:43:21.788Z,78.04
2023-01-30T16:46:44.308Z,78.12
2023-01-30T16:49:19.403Z,78.47
2023-01-30T16:51:48.845Z,78.37
2023-01-30T16:54:26.893Z,78.35
2023-01-30T16:56:58.915Z,78.82
2023-01-30T16:59:31.855Z,79.08
2023-01-30T17:02:01.390Z,79.06
2023-01-30T17:04:32.609Z,78.95
2023-01-30T17:07:04.223Z,78.83
2023-01-30T17:09:46.056Z,79.04
2023-01-30T17:12:39.157Z,79.18
2023-01-30T17:15:33.564Z,79.01
2023-01-30T17:18:02.313Z,79.33
2023-01-30T17:20:39.310Z,79.06
2023-01-30T17:23:11.091Z,79.17
2023-01-30T17:25:44.485Z,79.27
2023-01-30T17:28:21.324Z,79.36
2023-01-30T17:30:50.472Z,79.37
2023-01-30T17:33:18.863Z,79.40
2023-01-30T17:35:47.741Z,79.55
2023-01-30T17:38:16.421Z,79.36
2023-01-30T17:40:46.430Z,79.45
2023-01-30T17:43:17.016Z,79.36
2023-01-30T17:45:45.508Z,79.58
2023-01-30T17:48:17.509Z,79.55
2023-01-30T17:50:46.000Z,79.61
2023-01-30T17:53:14.375Z,79.52
2023-01-30T17:55:42.858Z,79.52
2023-01-30T17:58:20.961Z,79.57
2023-01-30T18:00:49.263Z,79.65
2023-01-30T18:03:17.588Z,79.69
2023-01-30T18:05:46.335Z,79.69
2023-01-30T18:08:15.131Z,79.68
2023-01-30T18:10:43.398Z,79.27
2023-01-30T18:13:13.110Z,79.36
2023-01-30T18:15:41.512Z,79.14
2023-01-30T18:18:13.115Z,78.86
2023-01-30T18:20:41.416Z,78.78
2023-01-30T18:23:09.743Z,78.81
2023-01-30T18:25:38.016Z,78.72
2023-01-30T18:28:08.618Z,78.79
2023-01-30T18:30:38.481Z,78.52
2023-01-30T18:33:07.074Z,78.46
2023-01-30T18:35:35.289Z,78.35
2023-01-30T18:38:03.569Z,78.14
2023-01-30T18:40:31.848Z,78.33
2023-01-30T18:43:00.124Z,78.43
2023-01-30T18:45:28.351Z,78.19
2023-01-30T18:47:58.050Z,78.00
2023-01-30T18:50:26.327Z,78.00
2023-01-30T18:52:54.516Z,77.81
2023-01-30T18:55:25.635Z,77.73
2023-01-30T18:57:54.031Z,77.72
2023-01-30T19:00:23.328Z,77.79
2023-01-30T19:02:53.002Z,77.89
2023-01-30T19:05:22.712Z,77.89
2023-01-30T19:07:50.960Z,77.91
2023-01-30T19:10:20.543Z,77.80
2023-01-30T19:13:20.909Z,77.66
2023-01-30T19:15:49.221Z,77.52
2023-01-30T19:18:17.715Z,77.37
2023-01-30T19:20:47.506Z,77.20
2023-01-30T19:23:15.840Z,77.33
2023-01-30T19:25:44.165Z,77.06
2023-01-30T19:28:12.540Z,76.92
2023-01-30T19:30:40.781Z,77.03
2023-01-30T19:33:09.155Z,77.10
2023-01-30T19:35:37.503Z,77.11
2023-01-30T19:38:14.444Z,76.67
2023-01-30T19:40:43.488Z,76.64
2023-01-30T19:43:12.315Z,75.97
2023-01-30T19:45:42.128Z,75.07
2023-01-30T19:48:12.077Z,74.43
2023-01-30T19:50:40.343Z,74.05
2023-01-30T19:53:10.066Z,73.52
2023-01-30T19:55:38.666Z,73.20
2023-01-30T19:58:07.009Z,72.91
2023-01-30T20:00:35.451Z,73.15
2023-01-30T20:03:03.758Z,73.15
2023-01-30T20:05:32.114Z,73.09
2023-01-30T20:08:00.421Z,73.32
2023-01-30T20:10:30.129Z,73.12
2023-01-30T20:12:58.427Z,73.37
2023-01-30T20:15:26.955Z,73.37
2023-01-30T20:17:55.374Z,73.60
2023-01-30T20:20:23.640Z,73.39
2023-01-30T20:22:51.937Z,72.84
2023-01-30T20:25:20.230Z,72.87
2023-01-30T20:27:49.852Z,72.51
2023-01-30T20:30:19.872Z,71.85
2023-01-30T20:32:48.307Z,71.77
2023-01-30T20:35:17.816Z,71.69
2023-01-30T20:37:46.116Z,71.61
2023-01-30T20:40:14.962Z,71.65
2023-01-30T20:42:43.169Z,71.94
2023-01-30T20:45:13.246Z,72.30
2023-01-30T20:47:42.181Z,72.19
2023-01-30T20:50:13.817Z,72.29
2023-01-30T20:52:43.660Z,71.98
2023-01-30T20:55:12.044Z,72.22
2023-01-30T20:57:43.569Z,72.27
2023-01-30T21:00:14.684Z,72.36
2023-01-30T21:02:45.720Z,72.63
2023-01-30T21:05:13.971Z,72.64
2023-01-30T21:07:42.228Z,72.76
2023-01-30T21:10:11.832Z,72.67
2023-01-30T21:12:40.097Z,72.92
2023-01-30T21:15:09.599Z,72.99
2023-01-30T21:17:39.431Z,73.06
2023-01-30T21:20:08.263Z,73.01
2023-01-30T21:22:36.951Z,73.11
2023-01-30T21:25:05.600Z,73.34
2023-01-30T21:27:33.860Z,73.49
2023-01-30T21:30:02.064Z,73.60
2023-01-30T21:32:30.396Z,73.53
2023-01-30T21:35:00.025Z,73.49
2023-01-30T21:37:47.666Z,73.59
2023-01-30T21:40:33.917Z,73.69
2023-01-30T21:43:17.389Z,73.76
2023-01-30T21:45:45.757Z,73.74
2023-01-30T21:48:14.401Z,73.36
2023-01-30T21:50:44.805Z,72.86
2023-01-30T21:53:13.041Z,73.37
2023-01-30T21:55:41.354Z,73.46
2023-01-30T21:58:09.654Z,73.36
2023-01-30T22:00:37.873Z,73.38
2023-01-30T22:03:06.250Z,73.27
2023-01-30T22:05:36.761Z,72.61
2023-01-30T22:08:06.972Z,72.04
2023-01-30T22:10:35.206Z,71.92
2023-01-30T22:13:03.543Z,71.70
2023-01-30T22:15:33.905Z,72.07
2023-01-30T22:18:03.628Z,72.20
2023-01-30T22:20:31.872Z,72.08
2023-01-30T22:23:00.164Z,71.90
2023-01-30T22:25:29.800Z,71.95
2023-01-30T22:27:58.056Z,72.14
2023-01-30T22:30:26.294Z,71.98
2023-01-30T22:32:55.679Z,72.44
2023-01-30T22:35:23.936Z,72.28
2023-01-30T22:37:52.225Z,72.74
2023-01-30T22:40:20.650Z,72.60
2023-01-30T22:42:50.341Z,72.48
2023-01-30T22:45:18.867Z,72.88
2023-01-30T22:47:47.319Z,72.47
2023-01-30T22:50:15.677Z,72.61
2023-01-30T22:52:43.977Z,72.59
2023-01-30T22:55:12.232Z,72.08
2023-01-30T22:57:40.568Z,71.56
2023-01-30T23:00:11.949Z,71.58
2023-01-30T23:02:40.492Z,70.70
2023-01-30T23:05:09.471Z,70.85
2023-01-30T23:07:38.120Z,70.89
2023-01-30T23:10:07.040Z,70.92
2023-01-30T23:12:52.383Z,70.79
2023-01-30T23:15:22.122Z,70.93
2023-01-30T23:18:08.140Z,70.41
2023-01-30T23:20:36.759Z,70.17
2023-01-30T23:23:07.096Z,70.63
2023-01-30T23:25:35.497Z,70.83
2023-01-30T23:28:03.724Z,70.72
2023-01-30T23:30:33.455Z,71.03
2023-01-30T23:33:01.825Z,70.91
2023-01-30T23:35:30.048Z,71.06
2023-01-30T23:38:15.591Z,71.17
2023-01-30T23:40:44.402Z,71.10
2023-01-30T23:43:12.806Z,70.88
2023-01-30T23:45:43.221Z,70.99
2023-01-30T23:48:11.712Z,71.22
2023-01-30T23:50:42.268Z,71.43
2023-01-30T23:53:10.697Z,71.33
2023-01-30T23:55:38.902Z,71.48
2023-01-30T23:58:07.216Z,71.53
